sensor_id;sensor_type;location;lat;lon;timestamp;noise_LAeq;noise_LA_min;noise_LA_max;noise_LA01;noise_LA95
61249;Laerm;47119;49.130;9.218;2023-07-31T00:00:55;47.56;46.00;53.18;;
61249;Laerm;47119;49.130;9.218;2023-07-31T00:03:22;47.62;46.07;52.82;;
61249;Laerm;47119;49.130;9.218;2023-07-31T00:05:51;47.58;46.18;53.24;;
61249;Laerm;47119;49.130;9.218;2023-07-31T00:08:18;47.53;46.07;49.76;;
61249;Laerm;47119;49.130;9.218;2023-07-31T00:10:44;47.52;46.28;51.40;;
61249;Laerm;47119;49.130;9.218;2023-07-31T00:13:11;47.53;45.85;51.84;;
61249;Laerm;47119;49.130;9.218;2023-07-31T00:15:40;47.59;46.26;53.10;;
61249;Laerm;47119;49.130;9.218;2023-07-31T00:18:07;47.61;46.29;52.68;;
61249;Laerm;47119;49.130;9.218;2023-07-31T00:20:34;47.53;46.21;52.06;;
61249;Laerm;47119;49.130;9.218;2023-07-31T00:23:05;47.55;46.30;52.82;;
61249;Laerm;47119;49.130;9.218;2023-07-31T00:25:34;47.48;46.31;50.08;;
61249;Laerm;47119;49.130;9.218;2023-07-31T00:28:01;47.50;46.18;51.68;;
61249;Laerm;47119;49.130;9.218;2023-07-31T00:30:28;47.52;46.21;53.61;;
61249;Laerm;47119;49.130;9.218;2023-07-31T00:32:55;47.47;46.09;51.23;;
61249;Laerm;47119;49.130;9.218;2023-07-31T00:35:22;47.47;46.28;49.27;;
61249;Laerm;47119;49.130;9.218;2023-07-31T00:37:53;47.46;46.01;51.70;;
61249;Laerm;47119;49.130;9.218;2023-07-31T00:40:24;47.48;46.13;51.50;;
61249;Laerm;47119;49.130;9.218;2023-07-31T00:42:51;47.52;46.21;51.04;;
61249;Laerm;47119;49.130;9.218;2023-07-31T00:45:23;47.52;45.99;52.59;;
61249;Laerm;47119;49.130;9.218;2023-07-31T00:47:52;47.52;46.28;52.85;;
61249;Laerm;47119;49.130;9.218;2023-07-31T00:50:19;47.53;46.27;52.48;;
61249;Laerm;47119;49.130;9.218;2023-07-31T00:52:46;47.56;46.12;49.70;;
61249;Laerm;47119;49.130;9.218;2023-07-31T00:55:13;47.61;46.39;50.40;;
61249;Laerm;47119;49.130;9.218;2023-07-31T00:57:46;47.70;46.38;51.32;;
61249;Laerm;47119;49.130;9.218;2023-07-31T01:00:14;48.12;46.46;53.63;;
61249;Laerm;47119;49.130;9.218;2023-07-31T01:02:45;48.08;46.32;52.19;;
61249;Laerm;47119;49.130;9.218;2023-07-31T01:05:15;48.53;46.45;53.15;;
61249;Laerm;47119;49.130;9.218;2023-07-31T01:07:51;48.87;46.42;53.41;;
61249;Laerm;47119;49.130;9.218;2023-07-31T01:10:23;48.25;46.50;52.35;;
61249;Laerm;47119;49.130;9.218;2023-07-31T01:12:56;48.57;46.61;53.00;;
61249;Laerm;47119;49.130;9.218;2023-07-31T01:15:26;48.15;46.59;52.84;;
61249;Laerm;47119;49.130;9.218;2023-07-31T01:17:56;48.34;46.59;53.39;;
61249;Laerm;47119;49.130;9.218;2023-07-31T01:20:29;49.22;47.26;52.65;;
61249;Laerm;47119;49.130;9.218;2023-07-31T01:23:51;49.13;46.62;52.88;;
61249;Laerm;47119;49.130;9.218;2023-07-31T01:26:30;48.84;46.64;52.71;;
61249;Laerm;47119;49.130;9.218;2023-07-31T01:29:03;49.38;47.02;53.23;;
61249;Laerm;47119;49.130;9.218;2023-07-31T01:31:36;48.41;46.37;52.76;;
61249;Laerm;47119;49.130;9.218;2023-07-31T01:34:10;48.33;46.66;52.09;;
61249;Laerm;47119;49.130;9.218;2023-07-31T01:36:37;48.36;46.93;50.99;;
61249;Laerm;47119;49.130;9.218;2023-07-31T01:39:07;48.30;46.81;50.54;;
61249;Laerm;47119;49.130;9.218;2023-07-31T01:41:37;48.45;46.55;52.46;;
61249;Laerm;47119;49.130;9.218;2023-07-31T01:44:05;48.66;46.85;51.52;;
61249;Laerm;47119;49.130;9.218;2023-07-31T01:46:35;48.73;46.80;52.02;;
61249;Laerm;47119;49.130;9.218;2023-07-31T01:49:05;48.69;46.55;53.09;;
61249;Laerm;47119;49.130;9.218;2023-07-31T01:51:35;49.01;47.09;53.47;;
61249;Laerm;47119;49.130;9.218;2023-07-31T01:54:04;49.34;47.16;52.24;;
61249;Laerm;47119;49.130;9.218;2023-07-31T01:56:32;49.59;47.73;54.19;;
61249;Laerm;47119;49.130;9.218;2023-07-31T01:59:03;49.92;47.76;53.58;;
61249;Laerm;47119;49.130;9.218;2023-07-31T02:01:29;49.58;47.68;53.65;;
61249;Laerm;47119;49.130;9.218;2023-07-31T02:03:59;49.57;47.45;52.84;;
61249;Laerm;47119;49.130;9.218;2023-07-31T02:06:29;49.23;47.28;52.01;;
61249;Laerm;47119;49.130;9.218;2023-07-31T02:08:59;49.22;47.00;52.28;;
61249;Laerm;47119;49.130;9.218;2023-07-31T02:11:25;49.23;47.37;53.56;;
61249;Laerm;47119;49.130;9.218;2023-07-31T02:13:52;49.43;47.28;52.07;;
61249;Laerm;47119;49.130;9.218;2023-07-31T02:16:23;49.30;46.90;53.65;;
61249;Laerm;47119;49.130;9.218;2023-07-31T02:18:52;49.38;47.22;52.83;;
61249;Laerm;47119;49.130;9.218;2023-07-31T02:21:21;49.76;47.53;53.60;;
61249;Laerm;47119;49.130;9.218;2023-07-31T02:23:48;49.12;47.31;52.82;;
61249;Laerm;47119;49.130;9.218;2023-07-31T02:26:15;49.75;47.59;54.81;;
61249;Laerm;47119;49.130;9.218;2023-07-31T02:28:42;49.91;47.42;56.36;;
61249;Laerm;47119;49.130;9.218;2023-07-31T02:31:10;50.21;47.33;53.77;;
61249;Laerm;47119;49.130;9.218;2023-07-31T02:33:41;49.78;46.93;53.29;;
61249;Laerm;47119;49.130;9.218;2023-07-31T02:36:11;50.00;47.70;53.24;;
61249;Laerm;47119;49.130;9.218;2023-07-31T02:38:38;50.64;47.67;55.74;;
61249;Laerm;47119;49.130;9.218;2023-07-31T02:41:06;51.33;48.36;57.97;;
61249;Laerm;47119;49.130;9.218;2023-07-31T02:43:37;50.72;47.81;55.44;;
61249;Laerm;47119;49.130;9.218;2023-07-31T02:46:04;50.86;49.09;53.89;;
61249;Laerm;47119;49.130;9.218;2023-07-31T02:48:32;51.03;48.30;53.83;;
61249;Laerm;47119;49.130;9.218;2023-07-31T02:51:02;50.84;48.01;55.31;;
61249;Laerm;47119;49.130;9.218;2023-07-31T02:53:29;50.46;48.28;53.89;;
61249;Laerm;47119;49.130;9.218;2023-07-31T02:55:56;50.50;48.23;53.69;;
61249;Laerm;47119;49.130;9.218;2023-07-31T02:58:23;50.85;48.88;54.18;;
61249;Laerm;47119;49.130;9.218;2023-07-31T03:00:50;51.01;48.84;54.28;;
61249;Laerm;47119;49.130;9.218;2023-07-31T03:03:17;51.10;48.75;54.20;;
61249;Laerm;47119;49.130;9.218;2023-07-31T03:05:43;51.97;49.21;55.68;;
61249;Laerm;47119;49.130;9.218;2023-07-31T03:08:12;51.52;49.36;54.48;;
61249;Laerm;47119;49.130;9.218;2023-07-31T03:10:44;51.72;49.34;55.20;;
61249;Laerm;47119;49.130;9.218;2023-07-31T03:13:11;51.82;49.58;55.86;;
61249;Laerm;47119;49.130;9.218;2023-07-31T03:15:42;51.71;49.12;55.14;;
61249;Laerm;47119;49.130;9.218;2023-07-31T03:18:12;51.78;49.46;55.44;;
61249;Laerm;47119;49.130;9.218;2023-07-31T03:20:42;51.73;48.89;54.99;;
61249;Laerm;47119;49.130;9.218;2023-07-31T03:23:10;52.49;49.01;56.23;;
61249;Laerm;47119;49.130;9.218;2023-07-31T03:25:56;52.27;49.33;55.87;;
61249;Laerm;47119;49.130;9.218;2023-07-31T03:28:23;51.95;48.45;56.33;;
61249;Laerm;47119;49.130;9.218;2023-07-31T03:30:52;51.59;48.75;55.30;;
61249;Laerm;47119;49.130;9.218;2023-07-31T03:33:19;51.57;48.25;55.20;;
61249;Laerm;47119;49.130;9.218;2023-07-31T03:35:46;51.29;48.49;55.27;;
61249;Laerm;47119;49.130;9.218;2023-07-31T03:38:13;50.80;46.60;56.92;;
61249;Laerm;47119;49.130;9.218;2023-07-31T03:40:46;50.82;47.00;56.69;;
61249;Laerm;47119;49.130;9.218;2023-07-31T03:43:15;52.42;48.56;56.30;;
61249;Laerm;47119;49.130;9.218;2023-07-31T03:45:42;52.21;48.82;55.85;;
61249;Laerm;47119;49.130;9.218;2023-07-31T03:48:13;52.24;48.38;57.01;;
61249;Laerm;47119;49.130;9.218;2023-07-31T03:50:40;52.05;48.68;55.82;;
61249;Laerm;47119;49.130;9.218;2023-07-31T03:53:09;51.97;48.33;56.13;;
61249;Laerm;47119;49.130;9.218;2023-07-31T03:55:36;51.81;48.30;55.36;;
61249;Laerm;47119;49.130;9.218;2023-07-31T03:58:07;51.64;47.94;55.18;;
61249;Laerm;47119;49.130;9.218;2023-07-31T04:00:34;51.52;48.01;55.11;;
61249;Laerm;47119;49.130;9.218;2023-07-31T04:03:03;51.61;48.52;55.34;;
61249;Laerm;47119;49.130;9.218;2023-07-31T04:05:32;51.85;47.55;56.38;;
61249;Laerm;47119;49.130;9.218;2023-07-31T04:07:58;51.65;47.92;56.19;;
61249;Laerm;47119;49.130;9.218;2023-07-31T04:10:25;51.50;47.99;55.40;;
61249;Laerm;47119;49.130;9.218;2023-07-31T04:12:52;51.45;48.39;56.01;;
61249;Laerm;47119;49.130;9.218;2023-07-31T04:15:20;51.58;47.49;56.59;;
61249;Laerm;47119;49.130;9.218;2023-07-31T04:17:47;51.26;47.78;55.08;;
61249;Laerm;47119;49.130;9.218;2023-07-31T04:20:14;51.02;45.94;57.91;;
61249;Laerm;47119;49.130;9.218;2023-07-31T04:22:44;52.02;46.68;57.63;;
61249;Laerm;47119;49.130;9.218;2023-07-31T04:25:13;50.11;46.61;53.83;;
61249;Laerm;47119;49.130;9.218;2023-07-31T04:27:40;50.09;46.33;54.74;;
61249;Laerm;47119;49.130;9.218;2023-07-31T04:30:12;49.93;46.37;53.67;;
61249;Laerm;47119;49.130;9.218;2023-07-31T04:32:42;49.67;46.14;53.51;;
61249;Laerm;47119;49.130;9.218;2023-07-31T04:35:10;49.32;46.09;53.38;;
61249;Laerm;47119;49.130;9.218;2023-07-31T04:37:39;48.84;45.95;53.16;;
61249;Laerm;47119;49.130;9.218;2023-07-31T04:40:07;48.54;46.19;52.74;;
61249;Laerm;47119;49.130;9.218;2023-07-31T04:42:34;48.53;46.06;52.71;;
61249;Laerm;47119;49.130;9.218;2023-07-31T04:45:05;48.09;45.98;51.57;;
61249;Laerm;47119;49.130;9.218;2023-07-31T04:47:32;47.97;45.93;52.94;;
61249;Laerm;47119;49.130;9.218;2023-07-31T04:50:00;47.92;46.12;51.46;;
61249;Laerm;47119;49.130;9.218;2023-07-31T04:52:29;48.01;46.00;52.15;;
61249;Laerm;47119;49.130;9.218;2023-07-31T04:55:07;47.94;45.74;51.41;;
61249;Laerm;47119;49.130;9.218;2023-07-31T04:57:34;48.01;46.08;51.91;;
61249;Laerm;47119;49.130;9.218;2023-07-31T05:00:04;47.99;46.01;51.61;;
61249;Laerm;47119;49.130;9.218;2023-07-31T05:02:33;47.94;46.14;51.30;;
61249;Laerm;47119;49.130;9.218;2023-07-31T05:05:08;47.93;46.13;51.76;;
61249;Laerm;47119;49.130;9.218;2023-07-31T05:07:35;47.99;46.05;51.72;;
61249;Laerm;47119;49.130;9.218;2023-07-31T05:10:03;48.03;46.42;51.52;;
61249;Laerm;47119;49.130;9.218;2023-07-31T05:12:30;48.04;46.35;51.80;;
61249;Laerm;47119;49.130;9.218;2023-07-31T05:14:59;48.03;46.22;52.03;;
61249;Laerm;47119;49.130;9.218;2023-07-31T05:17:26;48.04;46.35;51.09;;
61249;Laerm;47119;49.130;9.218;2023-07-31T05:19:55;48.08;46.19;51.05;;
61249;Laerm;47119;49.130;9.218;2023-07-31T05:22:23;48.10;46.16;52.44;;
61249;Laerm;47119;49.130;9.218;2023-07-31T05:24:57;48.17;46.44;54.83;;
61249;Laerm;47119;49.130;9.218;2023-07-31T05:27:24;48.20;46.29;53.14;;
61249;Laerm;47119;49.130;9.218;2023-07-31T05:29:51;48.10;46.19;51.14;;
61249;Laerm;47119;49.130;9.218;2023-07-31T05:32:20;48.05;46.37;51.62;;
61249;Laerm;47119;49.130;9.218;2023-07-31T05:34:47;48.11;46.16;51.19;;
61249;Laerm;47119;49.130;9.218;2023-07-31T05:37:16;47.86;45.89;55.43;;
61249;Laerm;47119;49.130;9.218;2023-07-31T05:39:45;47.22;45.69;59.19;;
61249;Laerm;47119;49.130;9.218;2023-07-31T05:42:22;48.40;45.89;65.02;;
61249;Laerm;47119;49.130;9.218;2023-07-31T05:44:51;46.96;45.84;54.59;;
61249;Laerm;47119;49.130;9.218;2023-07-31T05:47:33;46.95;45.68;54.54;;
61249;Laerm;47119;49.130;9.218;2023-07-31T05:50:00;47.00;45.79;55.07;;
61249;Laerm;47119;49.130;9.218;2023-07-31T05:52:29;46.97;45.82;54.06;;
61249;Laerm;47119;49.130;9.218;2023-07-31T05:54:57;46.98;45.68;56.33;;
61249;Laerm;47119;49.130;9.218;2023-07-31T05:57:24;47.02;45.45;53.65;;
61249;Laerm;47119;49.130;9.218;2023-07-31T05:59:51;48.89;45.44;60.50;;
61249;Laerm;47119;49.130;9.218;2023-07-31T06:02:19;50.36;47.13;56.89;;
61249;Laerm;47119;49.130;9.218;2023-07-31T06:04:46;50.35;46.91;57.36;;
61249;Laerm;47119;49.130;9.218;2023-07-31T06:07:12;50.19;46.98;57.80;;
61249;Laerm;47119;49.130;9.218;2023-07-31T06:09:39;51.09;47.20;57.58;;
61249;Laerm;47119;49.130;9.218;2023-07-31T06:12:10;50.98;46.94;57.28;;
61249;Laerm;47119;49.130;9.218;2023-07-31T06:14:37;49.00;46.05;56.64;;
61249;Laerm;47119;49.130;9.218;2023-07-31T06:17:05;49.03;46.03;56.86;;
61249;Laerm;47119;49.130;9.218;2023-07-31T06:19:34;49.52;46.55;57.90;;
61249;Laerm;47119;49.130;9.218;2023-07-31T06:22:01;48.63;45.93;54.73;;
61249;Laerm;47119;49.130;9.218;2023-07-31T06:24:28;48.19;46.26;54.16;;
61249;Laerm;47119;49.130;9.218;2023-07-31T06:26:55;48.13;46.29;54.13;;
61249;Laerm;47119;49.130;9.218;2023-07-31T06:29:24;48.09;46.12;53.86;;
61249;Laerm;47119;49.130;9.218;2023-07-31T06:31:51;48.04;46.23;54.77;;
61249;Laerm;47119;49.130;9.218;2023-07-31T06:34:19;48.01;46.19;53.54;;
61249;Laerm;47119;49.130;9.218;2023-07-31T06:36:47;47.61;45.95;52.21;;
61249;Laerm;47119;49.130;9.218;2023-07-31T06:39:14;47.21;45.65;51.21;;
61249;Laerm;47119;49.130;9.218;2023-07-31T06:41:42;46.95;45.83;50.74;;
61249;Laerm;47119;49.130;9.218;2023-07-31T06:44:11;46.93;45.63;51.27;;
61249;Laerm;47119;49.130;9.218;2023-07-31T06:46:40;46.92;45.70;50.14;;
61249;Laerm;47119;49.130;9.218;2023-07-31T06:49:09;47.04;45.83;50.59;;
61249;Laerm;47119;49.130;9.218;2023-07-31T06:51:36;47.39;45.82;50.92;;
61249;Laerm;47119;49.130;9.218;2023-07-31T06:54:04;47.58;46.17;51.82;;
61249;Laerm;47119;49.130;9.218;2023-07-31T06:56:31;47.62;46.08;51.79;;
61249;Laerm;47119;49.130;9.218;2023-07-31T06:59:00;47.58;46.18;51.89;;
61249;Laerm;47119;49.130;9.218;2023-07-31T07:01:27;50.32;45.87;66.39;;
61249;Laerm;47119;49.130;9.218;2023-07-31T07:03:56;52.32;45.92;66.64;;
61249;Laerm;47119;49.130;9.218;2023-07-31T07:06:25;47.60;45.92;52.69;;
61249;Laerm;47119;49.130;9.218;2023-07-31T07:08:52;47.82;45.88;53.40;;
61249;Laerm;47119;49.130;9.218;2023-07-31T07:11:19;47.81;45.97;53.72;;
61249;Laerm;47119;49.130;9.218;2023-07-31T07:13:49;47.94;46.04;54.13;;
61249;Laerm;47119;49.130;9.218;2023-07-31T07:16:16;47.85;46.06;54.39;;
61249;Laerm;47119;49.130;9.218;2023-07-31T07:18:43;47.49;45.76;54.69;;
61249;Laerm;47119;49.130;9.218;2023-07-31T07:21:11;47.71;45.67;50.55;;
61249;Laerm;47119;49.130;9.218;2023-07-31T07:23:42;48.08;46.18;50.73;;
61249;Laerm;47119;49.130;9.218;2023-07-31T07:26:09;48.14;45.90;51.66;;
61249;Laerm;47119;49.130;9.218;2023-07-31T07:28:36;47.95;46.08;50.44;;
61249;Laerm;47119;49.130;9.218;2023-07-31T07:31:06;48.06;45.88;51.51;;
61249;Laerm;47119;49.130;9.218;2023-07-31T07:33:35;48.02;46.05;50.95;;
61249;Laerm;47119;49.130;9.218;2023-07-31T07:36:05;48.15;45.95;51.32;;
61249;Laerm;47119;49.130;9.218;2023-07-31T07:38:39;48.25;45.88;51.00;;
61249;Laerm;47119;49.130;9.218;2023-07-31T07:41:06;48.39;45.80;51.36;;
61249;Laerm;47119;49.130;9.218;2023-07-31T07:43:38;48.26;45.86;51.75;;
61249;Laerm;47119;49.130;9.218;2023-07-31T07:46:07;48.45;46.31;52.33;;
61249;Laerm;47119;49.130;9.218;2023-07-31T07:48:34;48.45;45.90;51.25;;
61249;Laerm;47119;49.130;9.218;2023-07-31T07:51:03;48.44;46.32;51.84;;
61249;Laerm;47119;49.130;9.218;2023-07-31T07:53:32;48.20;45.83;51.43;;
61249;Laerm;47119;49.130;9.218;2023-07-31T07:56:05;48.11;45.76;54.80;;
61249;Laerm;47119;49.130;9.218;2023-07-31T07:58:35;49.42;46.04;55.32;;
61249;Laerm;47119;49.130;9.218;2023-07-31T08:01:04;50.61;47.66;53.39;;
61249;Laerm;47119;49.130;9.218;2023-07-31T08:03:31;50.81;48.08;53.09;;
61249;Laerm;47119;49.130;9.218;2023-07-31T08:06:00;51.28;48.85;53.38;;
61249;Laerm;47119;49.130;9.218;2023-07-31T08:08:30;52.38;49.83;54.54;;
61249;Laerm;47119;49.130;9.218;2023-07-31T08:10:59;53.34;50.74;56.17;;
61249;Laerm;47119;49.130;9.218;2023-07-31T08:13:30;54.60;51.26;56.93;;
61249;Laerm;47119;49.130;9.218;2023-07-31T08:15:57;55.67;51.38;57.76;;
61249;Laerm;47119;49.130;9.218;2023-07-31T08:18:24;56.12;51.37;57.74;;
61249;Laerm;47119;49.130;9.218;2023-07-31T08:20:51;56.35;50.69;58.36;;
61249;Laerm;47119;49.130;9.218;2023-07-31T08:23:18;56.07;50.99;58.63;;
61249;Laerm;47119;49.130;9.218;2023-07-31T08:25:49;56.82;50.98;58.75;;
61249;Laerm;47119;49.130;9.218;2023-07-31T08:28:21;56.46;50.33;59.30;;
61249;Laerm;47119;49.130;9.218;2023-07-31T08:30:54;56.63;50.64;58.97;;
61249;Laerm;47119;49.130;9.218;2023-07-31T08:33:23;56.34;49.54;58.74;;
61249;Laerm;47119;49.130;9.218;2023-07-31T08:35:55;56.62;49.65;59.49;;
61249;Laerm;47119;49.130;9.218;2023-07-31T08:38:22;56.94;50.03;59.98;;
61249;Laerm;47119;49.130;9.218;2023-07-31T08:40:53;58.21;51.67;60.31;;
61249;Laerm;47119;49.130;9.218;2023-07-31T08:43:21;58.33;50.87;60.18;;
61249;Laerm;47119;49.130;9.218;2023-07-31T08:45:53;58.56;50.98;60.30;;
61249;Laerm;47119;49.130;9.218;2023-07-31T08:48:26;57.75;50.23;60.15;;
61249;Laerm;47119;49.130;9.218;2023-07-31T08:50:55;57.74;52.27;60.32;;
61249;Laerm;47119;49.130;9.218;2023-07-31T08:53:22;56.66;47.02;60.33;;
61249;Laerm;47119;49.130;9.218;2023-07-31T08:55:54;49.11;46.73;52.40;;
61249;Laerm;47119;49.130;9.218;2023-07-31T08:58:27;49.36;47.00;52.01;;
61249;Laerm;47119;49.130;9.218;2023-07-31T09:01:01;49.43;46.98;51.74;;
61249;Laerm;47119;49.130;9.218;2023-07-31T09:03:33;49.62;47.17;51.97;;
61249;Laerm;47119;49.130;9.218;2023-07-31T09:06:02;49.65;47.20;53.42;;
61249;Laerm;47119;49.130;9.218;2023-07-31T09:08:31;49.98;47.32;52.53;;
61249;Laerm;47119;49.130;9.218;2023-07-31T09:11:00;50.76;47.49;53.71;;
61249;Laerm;47119;49.130;9.218;2023-07-31T09:13:34;50.88;46.87;55.03;;
61249;Laerm;47119;49.130;9.218;2023-07-31T09:16:08;48.64;45.85;56.89;;
61249;Laerm;47119;49.130;9.218;2023-07-31T09:18:53;47.65;45.75;56.43;;
61249;Laerm;47119;49.130;9.218;2023-07-31T09:21:25;47.38;45.85;53.59;;
61249;Laerm;47119;49.130;9.218;2023-07-31T09:23:57;47.49;45.54;56.14;;
61249;Laerm;47119;49.130;9.218;2023-07-31T09:26:33;47.46;45.64;55.34;;
61249;Laerm;47119;49.130;9.218;2023-07-31T09:29:01;49.13;45.75;57.76;;
61249;Laerm;47119;49.130;9.218;2023-07-31T09:31:41;51.36;45.61;57.85;;
61249;Laerm;47119;49.130;9.218;2023-07-31T09:34:08;50.23;46.14;53.72;;
61249;Laerm;47119;49.130;9.218;2023-07-31T09:36:42;48.49;45.65;55.04;;
61249;Laerm;47119;49.130;9.218;2023-07-31T09:39:11;48.57;46.18;51.99;;
61249;Laerm;47119;49.130;9.218;2023-07-31T09:41:39;47.81;46.09;55.06;;
61249;Laerm;47119;49.130;9.218;2023-07-31T09:44:07;47.99;46.11;49.87;;
61249;Laerm;47119;49.130;9.218;2023-07-31T09:46:35;47.91;46.18;51.12;;
61249;Laerm;47119;49.130;9.218;2023-07-31T09:49:08;47.80;46.28;49.55;;
61249;Laerm;47119;49.130;9.218;2023-07-31T09:51:37;48.44;46.41;59.39;;
61249;Laerm;47119;49.130;9.218;2023-07-31T09:54:11;54.95;48.37;60.80;;
61249;Laerm;47119;49.130;9.218;2023-07-31T09:56:43;57.20;50.08;62.83;;
61249;Laerm;47119;49.130;9.218;2023-07-31T09:59:15;52.00;48.48;60.17;;
61249;Laerm;47119;49.130;9.218;2023-07-31T10:01:46;52.47;48.46;59.95;;
61249;Laerm;47119;49.130;9.218;2023-07-31T10:04:18;57.14;49.25;68.05;;
61249;Laerm;47119;49.130;9.218;2023-07-31T10:06:50;59.14;48.43;67.41;;
61249;Laerm;47119;49.130;9.218;2023-07-31T10:09:21;54.75;45.67;66.63;;
61249;Laerm;47119;49.130;9.218;2023-07-31T10:12:00;54.56;45.78;66.91;;
61249;Laerm;47119;49.130;9.218;2023-07-31T10:14:27;55.19;45.79;66.88;;
61249;Laerm;47119;49.130;9.218;2023-07-31T10:16:57;61.58;51.15;68.28;;
61249;Laerm;47119;49.130;9.218;2023-07-31T10:19:30;51.32;46.67;56.66;;
61249;Laerm;47119;49.130;9.218;2023-07-31T10:22:02;55.19;46.77;59.35;;
61249;Laerm;47119;49.130;9.218;2023-07-31T10:24:31;55.63;46.24;63.43;;
61249;Laerm;47119;49.130;9.218;2023-07-31T10:27:01;55.30;46.16;70.31;;
61249;Laerm;47119;49.130;9.218;2023-07-31T10:29:29;55.03;45.68;62.29;;
61249;Laerm;47119;49.130;9.218;2023-07-31T10:32:02;55.70;46.58;64.21;;
61249;Laerm;47119;49.130;9.218;2023-07-31T10:34:40;61.63;47.53;69.62;;
61249;Laerm;47119;49.130;9.218;2023-07-31T10:41:39;57.35;46.06;73.28;;
61249;Laerm;47119;49.130;9.218;2023-07-31T10:44:27;54.44;46.51;67.47;;
61249;Laerm;47119;49.130;9.218;2023-07-31T10:46:57;55.84;47.27;65.39;;
61249;Laerm;47119;49.130;9.218;2023-07-31T10:49:24;57.01;45.89;65.89;;
61249;Laerm;47119;49.130;9.218;2023-07-31T10:51:58;55.37;46.48;65.96;;
61249;Laerm;47119;49.130;9.218;2023-07-31T10:54:28;62.71;47.31;72.35;;
61249;Laerm;47119;49.130;9.218;2023-07-31T10:56:56;66.36;46.25;72.62;;
61249;Laerm;47119;49.130;9.218;2023-07-31T10:59:26;66.86;46.08;73.13;;
61249;Laerm;47119;49.130;9.218;2023-07-31T11:01:57;66.38;46.49;74.08;;
61249;Laerm;47119;49.130;9.218;2023-07-31T11:04:27;64.49;45.98;73.06;;
61249;Laerm;47119;49.130;9.218;2023-07-31T11:07:00;59.17;46.12;69.94;;
61249;Laerm;47119;49.130;9.218;2023-07-31T11:09:31;59.82;45.96;68.96;;
61249;Laerm;47119;49.130;9.218;2023-07-31T11:11:59;60.08;45.83;67.75;;
61249;Laerm;47119;49.130;9.218;2023-07-31T11:14:29;59.60;46.30;67.76;;
61249;Laerm;47119;49.130;9.218;2023-07-31T11:16:56;60.63;46.81;68.23;;
61249;Laerm;47119;49.130;9.218;2023-07-31T11:19:23;60.31;46.67;67.62;;
61249;Laerm;47119;49.130;9.218;2023-07-31T11:21:52;62.55;46.68;69.97;;
61249;Laerm;47119;49.130;9.218;2023-07-31T11:24:21;62.55;46.68;71.48;;
61249;Laerm;47119;49.130;9.218;2023-07-31T11:26:50;62.47;47.02;70.47;;
61249;Laerm;47119;49.130;9.218;2023-07-31T11:29:18;62.05;47.05;69.90;;
61249;Laerm;47119;49.130;9.218;2023-07-31T11:31:47;61.68;47.29;71.06;;
61249;Laerm;47119;49.130;9.218;2023-07-31T11:34:14;62.44;46.32;72.05;;
61249;Laerm;47119;49.130;9.218;2023-07-31T11:36:53;61.65;46.21;71.77;;
61249;Laerm;47119;49.130;9.218;2023-07-31T11:39:21;60.61;47.52;67.92;;
61249;Laerm;47119;49.130;9.218;2023-07-31T11:41:58;60.53;46.89;69.45;;
61249;Laerm;47119;49.130;9.218;2023-07-31T11:44:25;60.26;46.37;68.84;;
61249;Laerm;47119;49.130;9.218;2023-07-31T11:46:56;59.72;46.42;68.95;;
61249;Laerm;47119;49.130;9.218;2023-07-31T11:49:23;59.32;46.75;69.20;;
61249;Laerm;47119;49.130;9.218;2023-07-31T11:51:53;61.74;46.28;71.81;;
61249;Laerm;47119;49.130;9.218;2023-07-31T11:54:22;58.84;46.04;69.71;;
61249;Laerm;47119;49.130;9.218;2023-07-31T11:56:52;56.89;46.22;67.39;;
61249;Laerm;47119;49.130;9.218;2023-07-31T11:59:24;58.15;45.99;69.01;;
61249;Laerm;47119;49.130;9.218;2023-07-31T12:01:54;58.88;46.23;68.53;;
61249;Laerm;47119;49.130;9.218;2023-07-31T12:04:26;58.84;45.67;68.19;;
61249;Laerm;47119;49.130;9.218;2023-07-31T12:06:53;59.92;45.84;68.16;;
61249;Laerm;47119;49.130;9.218;2023-07-31T12:09:21;60.08;45.67;69.86;;
61249;Laerm;47119;49.130;9.218;2023-07-31T12:11:49;58.24;45.60;67.09;;
61249;Laerm;47119;49.130;9.218;2023-07-31T12:14:24;57.84;45.70;66.50;;
61249;Laerm;47119;49.130;9.218;2023-07-31T12:16:54;59.29;45.62;70.27;;
61249;Laerm;47119;49.130;9.218;2023-07-31T12:19:22;61.33;46.31;70.11;;
61249;Laerm;47119;49.130;9.218;2023-07-31T12:21:51;58.98;46.55;68.85;;
61249;Laerm;47119;49.130;9.218;2023-07-31T12:24:18;61.69;46.08;70.67;;
61249;Laerm;47119;49.130;9.218;2023-07-31T12:26:48;58.51;47.54;67.29;;
61249;Laerm;47119;49.130;9.218;2023-07-31T12:29:15;61.03;46.37;68.92;;
61249;Laerm;47119;49.130;9.218;2023-07-31T12:31:42;64.93;47.36;77.39;;
61249;Laerm;47119;49.130;9.218;2023-07-31T12:34:17;62.40;47.31;72.93;;
61249;Laerm;47119;49.130;9.218;2023-07-31T12:36:47;66.71;46.52;75.67;;
61249;Laerm;47119;49.130;9.218;2023-07-31T12:39:15;62.35;45.86;71.84;;
61249;Laerm;47119;49.130;9.218;2023-07-31T12:41:42;62.26;45.49;71.23;;
61249;Laerm;47119;49.130;9.218;2023-07-31T12:44:10;62.17;45.66;72.02;;
61249;Laerm;47119;49.130;9.218;2023-07-31T12:46:39;61.63;45.74;71.82;;
61249;Laerm;47119;49.130;9.218;2023-07-31T12:49:06;65.88;46.03;75.52;;
61249;Laerm;47119;49.130;9.218;2023-07-31T12:51:33;66.54;46.51;74.72;;
61249;Laerm;47119;49.130;9.218;2023-07-31T12:54:03;66.45;47.13;75.22;;
61249;Laerm;47119;49.130;9.218;2023-07-31T12:56:30;66.34;46.93;75.07;;
61249;Laerm;47119;49.130;9.218;2023-07-31T12:58:57;67.66;49.58;72.22;;
61249;Laerm;47119;49.130;9.218;2023-07-31T13:01:27;64.48;50.47;69.64;;
61249;Laerm;47119;49.130;9.218;2023-07-31T13:03:54;66.47;52.04;77.08;;
61249;Laerm;47119;49.130;9.218;2023-07-31T13:06:25;62.12;50.21;70.40;;
61249;Laerm;47119;49.130;9.218;2023-07-31T13:08:52;63.05;50.03;70.73;;
61249;Laerm;47119;49.130;9.218;2023-07-31T13:11:21;63.93;51.28;70.12;;
61249;Laerm;47119;49.130;9.218;2023-07-31T13:13:51;63.96;52.69;70.09;;
61249;Laerm;47119;49.130;9.218;2023-07-31T13:16:17;63.96;53.96;70.86;;
61249;Laerm;47119;49.130;9.218;2023-07-31T13:18:48;63.67;56.57;73.12;;
61249;Laerm;47119;49.130;9.218;2023-07-31T13:21:20;62.10;49.02;70.10;;
61249;Laerm;47119;49.130;9.218;2023-07-31T13:23:50;68.72;48.52;76.01;;
61249;Laerm;47119;49.130;9.218;2023-07-31T13:26:20;70.42;45.68;76.38;;
61249;Laerm;47119;49.130;9.218;2023-07-31T13:28:47;56.87;45.99;68.55;;
61249;Laerm;47119;49.130;9.218;2023-07-31T13:31:14;61.53;46.08;72.05;;
61249;Laerm;47119;49.130;9.218;2023-07-31T13:33:41;60.99;54.17;71.63;;
61249;Laerm;47119;49.130;9.218;2023-07-31T13:36:13;61.40;55.34;71.39;;
61249;Laerm;47119;49.130;9.218;2023-07-31T13:38:42;58.76;49.96;70.70;;
61249;Laerm;47119;49.130;9.218;2023-07-31T13:41:11;58.50;50.50;69.18;;
61249;Laerm;47119;49.130;9.218;2023-07-31T13:43:41;58.14;49.92;68.25;;
61249;Laerm;47119;49.130;9.218;2023-07-31T13:46:10;59.22;49.25;69.50;;
61249;Laerm;47119;49.130;9.218;2023-07-31T13:48:40;60.57;48.40;70.61;;
61249;Laerm;47119;49.130;9.218;2023-07-31T13:51:09;64.84;48.34;74.70;;
61249;Laerm;47119;49.130;9.218;2023-07-31T13:53:40;60.87;46.67;69.48;;
61249;Laerm;47119;49.130;9.218;2023-07-31T13:56:07;59.93;46.55;70.57;;
61249;Laerm;47119;49.130;9.218;2023-07-31T13:58:34;58.86;47.41;69.46;;
61249;Laerm;47119;49.130;9.218;2023-07-31T14:01:04;58.06;47.72;70.42;;